CheckWX is a tool to help pilots better visualize weather data.  It is not intended as a substitute for an official pre-flight weather briefing.

16:14:23 UTC

KSFM METAR
Sanford Seacoast Regional Airport
Sanford, Maine, USA
Current

18 mins ago

KSFM 261556Z AUTO 20007KT 10SM CLR 24/16 A3020 RMK AO2 SLP229 T02390161
Observed
May-26 @ 15:56 UTC
Wind
  • 200° at 7 KTS
Visibility
Flight Rules
VFR
Cloud Levels
  • Clear skies
Temperature
24°C / 75°F
Dewpoint
16°C / 61°F
Humidity
61%
Altimeter
30.2" Hg
Pressure
1022.72 hPa
Previous

1 hour ago

KSFM 261456Z AUTO 22007KT 170V250 10SM CLR 22/16 A3021 RMK AO2 SLP233 T02220161 58006
Observed
May-26 @ 14:56 UTC
Wind
  • 220° at 7 KTS
Visibility
Flight Rules
VFR
Cloud Levels
  • Clear skies
Temperature
22°C / 72°F
Dewpoint
16°C / 61°F
Humidity
69%
Altimeter
30.21" Hg
Pressure
1023.02 hPa
Previous

2 hours ago

KSFM 261356Z AUTO 23006KT 10SM CLR 21/16 A3021 RMK AO2 SLP235 T02060156
Observed
May-26 @ 13:56 UTC
Wind
  • 230° at 6 KTS
Visibility
Flight Rules
VFR
Cloud Levels
  • Clear skies
Temperature
21°C / 70°F
Dewpoint
16°C / 61°F
Humidity
73%
Altimeter
30.21" Hg
Pressure
1023.02 hPa